createdAt,value
2022-09-20T00:00:47.669Z,101856.44
2022-09-20T00:03:15.808Z,101854.81
2022-09-20T00:05:45.478Z,101849.25
2022-09-20T00:08:15.406Z,101851.56
2022-09-20T00:10:42.989Z,101853.53
2022-09-20T00:13:12.354Z,101849.47
2022-09-20T00:15:44.301Z,101848.66
2022-09-20T00:18:12.101Z,101852.97
2022-09-20T00:20:49.652Z,101851.31
2022-09-20T00:23:17.189Z,101848.91
2022-09-20T00:25:44.269Z,101852.00
2022-09-20T00:28:11.439Z,101853.66
2022-09-20T00:30:39.281Z,101857.59
2022-09-20T00:33:05.960Z,101858.09
2022-09-20T00:35:33.079Z,101853.66
2022-09-20T00:37:59.747Z,101857.13
2022-09-20T00:40:30.415Z,101860.59
2022-09-20T00:42:57.212Z,101858.28
2022-09-20T00:45:29.057Z,101853.19
2022-09-20T00:48:12.200Z,101857.59
2022-09-20T00:50:41.730Z,101861.56
2022-09-20T00:53:18.376Z,101852.00
2022-09-20T00:55:52.152Z,101862.38
2022-09-20T00:58:20.470Z,101851.56
2022-09-20T01:00:49.458Z,101857.59
2022-09-20T01:03:23.099Z,101854.47
2022-09-20T01:05:54.117Z,101855.28
2022-09-20T01:08:24.620Z,101856.91
2022-09-20T01:10:52.326Z,101865.25
2022-09-20T01:13:18.990Z,101858.53
2022-09-20T01:15:49.502Z,101862.94
2022-09-20T01:18:18.459Z,101866.53
2022-09-20T01:20:46.662Z,101862.94
2022-09-20T01:23:19.364Z,101872.47
2022-09-20T01:26:17.079Z,101868.88
2022-09-20T01:28:49.522Z,101864.94
2022-09-20T01:31:26.465Z,101869.69
2022-09-20T01:34:08.726Z,101873.63
2022-09-20T01:36:58.916Z,101865.25
2022-09-20T01:39:56.368Z,101863.66
2022-09-20T01:42:34.254Z,101868.75
2022-09-20T01:45:23.993Z,101868.75
2022-09-20T01:48:29.164Z,101865.50
2022-09-20T01:51:33.165Z,101870.75
2022-09-20T01:54:18.747Z,101857.13
2022-09-20T01:56:54.128Z,101861.88
2022-09-20T01:59:29.736Z,101868.28
2022-09-20T02:02:08.217Z,101869.44
2022-09-20T02:05:25.678Z,101869.44
2022-09-20T02:08:13.110Z,101863.84
2022-09-20T02:10:49.888Z,101861.78
2022-09-20T02:13:43.412Z,101866.19
2022-09-20T02:16:47.401Z,101869.66
2022-09-20T02:19:19.802Z,101875.59
2022-09-20T02:22:14.212Z,101867.59
2022-09-20T02:25:04.447Z,101870.38
2022-09-20T02:27:40.324Z,101869.19
2022-09-20T02:30:15.743Z,101855.25
2022-09-20T02:32:57.059Z,101866.09
2022-09-20T02:35:42.429Z,101858.03
2022-09-20T02:38:15.065Z,101868.06
2022-09-20T02:40:59.628Z,101868.38
2022-09-20T02:43:48.603Z,101860.69
2022-09-20T02:46:33.931Z,101857.13
2022-09-20T02:49:19.537Z,101861.06
2022-09-20T02:51:57.022Z,101859.44
2022-09-20T02:54:32.879Z,101855.84
2022-09-20T02:57:29.062Z,101845.03
2022-09-20T03:00:09.609Z,101850.97
2022-09-20T03:02:53.734Z,101846.91
2022-09-20T03:05:30.684Z,101853.63
2022-09-20T03:08:35.142Z,101851.50
2022-09-20T03:11:17.669Z,101851.06
2022-09-20T03:14:11.941Z,101851.75
2022-09-20T03:16:55.888Z,101834.56
2022-09-20T03:19:28.613Z,101843.59
2022-09-20T03:22:13.197Z,101842.31
2022-09-20T03:24:55.186Z,101842.69
2022-09-20T03:27:53.233Z,101838.94
2022-09-20T03:30:25.663Z,101839.63
2022-09-20T03:33:11.165Z,101831.97
2022-09-20T03:35:53.801Z,101833.13
2022-09-20T03:38:30.490Z,101832.66
2022-09-20T03:41:06.864Z,101829.88
2022-09-20T03:43:39.224Z,101833.81
2022-09-20T03:46:19.707Z,101828.91
2022-09-20T03:48:46.410Z,101829.25
2022-09-20T03:51:33.633Z,101819.63
2022-09-20T03:54:17.123Z,101827.97
2022-09-20T03:57:05.361Z,101826.34
2022-09-20T03:59:56.299Z,101821.91
2022-09-20T04:02:38.173Z,101821.81
2022-09-20T04:05:41.799Z,101820.97
2022-09-20T04:08:36.748Z,101824.91
2022-09-20T04:11:18.074Z,101819.25
2022-09-20T04:13:55.531Z,101811.56
2022-09-20T04:16:55.760Z,101814.22
2022-09-20T04:19:32.719Z,101817.34
2022-09-20T04:22:01.553Z,101818.84
2022-09-20T04:24:46.621Z,101811.84
2022-09-20T04:27:31.960Z,101809.63
2022-09-20T04:30:05.573Z,101805.09
2022-09-20T04:33:03.669Z,101804.94
2022-09-20T04:35:55.019Z,101806.78
2022-09-20T04:38:22.198Z,101805.03
2022-09-20T04:41:00.111Z,101801.28
2022-09-20T04:43:54.257Z,101803.16
2022-09-20T04:46:42.456Z,101810.53
2022-09-20T04:49:47.028Z,101805.63
2022-09-20T04:52:44.649Z,101804.72
2022-09-20T04:55:46.130Z,101799.34
2022-09-20T04:58:42.224Z,101799.19
2022-09-20T05:01:30.421Z,101803.84
2022-09-20T05:04:20.233Z,101814.13
2022-09-20T05:06:56.119Z,101804.16
2022-09-20T05:09:47.220Z,101806.25
2022-09-20T05:12:36.152Z,101804.78
2022-09-20T05:15:21.446Z,101813.78
2022-09-20T05:18:23.650Z,101810.19
2022-09-20T05:21:05.136Z,101812.66
2022-09-20T05:23:53.379Z,101818.88
2022-09-20T05:26:43.480Z,101814.13
2022-09-20T05:29:13.558Z,101819.69
2022-09-20T05:31:55.138Z,101814.81
2022-09-20T05:34:52.238Z,101823.34
2022-09-20T05:37:40.206Z,101819.97
2022-09-20T05:40:34.719Z,101820.47
2022-09-20T05:43:13.782Z,101813.50
2022-09-20T05:46:11.224Z,101823.84
2022-09-20T05:48:52.436Z,101827.63
2022-09-20T05:52:05.841Z,101826.16
2022-09-20T05:54:46.197Z,101817.66
2022-09-20T05:57:31.374Z,101821.47
2022-09-20T06:00:18.269Z,101827.56
2022-09-20T06:03:15.915Z,101824.97
2022-09-20T06:05:59.746Z,101821.22
2022-09-20T06:08:57.814Z,101824.47
2022-09-20T06:11:36.416Z,101832.81
2022-09-20T06:14:13.614Z,101833.00
2022-09-20T06:16:55.205Z,101826.00
2022-09-20T06:19:46.013Z,101832.22
2022-09-20T06:22:16.496Z,101829.63
2022-09-20T06:25:01.897Z,101823.09
2022-09-20T06:27:38.212Z,101828.00
2022-09-20T06:30:12.651Z,101828.16
2022-09-20T06:32:56.113Z,101830.75
2022-09-20T06:35:28.299Z,101827.44
2022-09-20T06:38:33.932Z,101829.84
2022-09-20T06:41:20.919Z,101821.94
2022-09-20T06:43:48.736Z,101827.47
2022-09-20T06:46:16.245Z,101825.03
2022-09-20T06:48:43.055Z,101835.94
2022-09-20T06:51:10.245Z,101825.75
2022-09-20T06:53:41.035Z,101834.38
2022-09-20T06:56:09.730Z,101838.13
2022-09-20T06:58:36.456Z,101842.69
2022-09-20T07:01:03.423Z,101840.03
2022-09-20T07:03:32.979Z,101835.41
2022-09-20T07:06:00.696Z,101845.06
2022-09-20T07:08:27.824Z,101843.56
2022-09-20T07:10:54.736Z,101841.75
2022-09-20T07:13:21.673Z,101839.13
2022-09-20T07:15:49.065Z,101841.69
2022-09-20T07:18:15.937Z,101841.81
2022-09-20T07:20:42.692Z,101851.59
2022-09-20T07:23:10.177Z,101850.25
2022-09-20T07:25:37.303Z,101854.25
2022-09-20T07:28:04.080Z,101848.72
2022-09-20T07:30:30.843Z,101844.38
2022-09-20T07:32:57.549Z,101857.34
2022-09-20T07:35:24.289Z,101854.75
2022-09-20T07:37:57.112Z,101862.88
2022-09-20T07:40:24.228Z,101852.25
2022-09-20T07:42:54.271Z,101863.63
2022-09-20T07:45:24.043Z,101859.78
2022-09-20T07:47:50.989Z,101861.06
2022-09-20T07:50:19.150Z,101861.56
2022-09-20T07:52:47.626Z,101857.25
2022-09-20T07:55:14.378Z,101860.16
2022-09-20T07:57:41.114Z,101862.25
2022-09-20T08:00:09.413Z,101854.81
2022-09-20T08:02:36.981Z,101860.63
2022-09-20T08:05:05.055Z,101860.06
2022-09-20T08:07:33.316Z,101867.81
2022-09-20T08:10:00.561Z,101862.13
2022-09-20T08:15:14.781Z,101869.78
2022-09-20T08:17:41.701Z,101869.69
2022-09-20T08:20:09.650Z,101872.69
2022-09-20T08:22:38.927Z,101879.31
2022-09-20T08:25:07.467Z,101878.28
2022-09-20T08:27:34.431Z,101878.47
2022-09-20T08:30:01.349Z,101871.50
2022-09-20T08:32:28.928Z,101873.56
2022-09-20T08:34:58.133Z,101880.78
2022-09-20T08:37:24.862Z,101876.56
2022-09-20T08:39:59.162Z,101878.41
2022-09-20T08:42:36.652Z,101877.56
2022-09-20T08:45:22.305Z,101881.09
2022-09-20T08:48:01.128Z,101874.72
2022-09-20T08:50:28.820Z,101872.38
2022-09-20T08:53:05.034Z,101871.47
2022-09-20T08:55:37.923Z,101876.53
2022-09-20T08:58:08.550Z,101878.69
2022-09-20T09:00:37.429Z,101877.97
2022-09-20T09:03:17.269Z,101879.78
2022-09-20T09:05:47.560Z,101873.19
2022-09-20T09:08:28.542Z,101884.22
2022-09-20T09:11:08.602Z,101879.50
2022-09-20T09:13:53.769Z,101880.31
2022-09-20T09:16:30.177Z,101883.56
2022-09-20T09:19:33.228Z,101892.69
2022-09-20T09:22:02.847Z,101901.00
2022-09-20T09:24:31.569Z,101891.34
2022-09-20T09:27:12.759Z,101896.19
2022-09-20T09:29:50.675Z,101902.72
2022-09-20T09:32:24.251Z,101902.00
2022-09-20T09:34:51.288Z,101909.28
2022-09-20T09:37:30.645Z,101898.63
2022-09-20T09:40:18.887Z,101899.28
2022-09-20T09:42:57.577Z,101897.25
2022-09-20T09:45:38.768Z,101891.31
2022-09-20T09:48:28.085Z,101894.25
2022-09-20T09:51:10.612Z,101897.13
2022-09-20T09:53:39.170Z,101890.91
2022-09-20T09:56:31.898Z,101887.66
2022-09-20T09:58:59.094Z,101895.09
2022-09-20T10:01:33.783Z,101889.72
2022-09-20T10:04:03.527Z,101892.31
2022-09-20T10:06:54.918Z,101890.38
2022-09-20T10:09:59.781Z,101892.78
2022-09-20T10:12:52.023Z,101891.91
2022-09-20T10:15:45.481Z,101895.28
2022-09-20T10:18:35.248Z,101894.16
2022-09-20T10:21:42.108Z,101898.53
2022-09-20T10:24:34.625Z,101900.00
2022-09-20T10:27:07.147Z,101901.06
2022-09-20T10:29:41.218Z,101901.25
2022-09-20T10:32:16.928Z,101909.94
2022-09-20T10:35:14.130Z,101903.41
2022-09-20T10:38:12.237Z,101904.91
2022-09-20T10:41:09.413Z,101905.38
2022-09-20T10:44:12.989Z,101909.09
2022-09-20T10:46:53.695Z,101898.72
2022-09-20T10:49:23.870Z,101902.56
2022-09-20T10:52:01.055Z,101898.50
2022-09-20T10:54:47.617Z,101894.59
2022-09-20T10:57:26.157Z,101888.59
2022-09-20T11:00:18.540Z,101894.59
2022-09-20T11:03:10.413Z,101902.31
2022-09-20T11:06:01.285Z,101892.25
2022-09-20T11:08:34.532Z,101896.16
2022-09-20T11:11:08.869Z,101888.53
2022-09-20T11:13:48.613Z,101891.75
2022-09-20T11:16:27.342Z,101892.56
2022-09-20T11:19:15.376Z,101893.34
2022-09-20T11:21:52.543Z,101894.47
2022-09-20T11:24:33.879Z,101893.03
2022-09-20T11:27:16.493Z,101888.09
2022-09-20T11:30:15.967Z,101888.00
2022-09-20T11:32:58.080Z,101874.69
2022-09-20T11:35:38.806Z,101880.31
2022-09-20T11:38:17.658Z,101876.75
2022-09-20T11:40:56.192Z,101876.00
2022-09-20T11:43:26.986Z,101880.78
2022-09-20T11:46:01.660Z,101875.88
2022-09-20T11:48:38.661Z,101872.19
2022-09-20T11:51:16.717Z,101878.41
2022-09-20T11:54:39.986Z,101873.75
2022-09-20T11:57:08.147Z,101873.56
2022-09-20T11:59:43.571Z,101878.34
2022-09-20T12:02:51.112Z,101874.72
2022-09-20T12:05:32.767Z,101863.53
2022-09-20T12:08:02.063Z,101860.59
2022-09-20T12:10:34.790Z,101867.00
2022-09-20T12:13:08.075Z,101862.22
2022-09-20T12:15:36.102Z,101853.56
2022-09-20T12:18:09.613Z,101864.13
2022-09-20T12:20:36.382Z,101863.44
2022-09-20T12:23:40.521Z,101860.72
2022-09-20T12:26:20.848Z,101852.28
2022-09-20T12:28:54.381Z,101862.34
2022-09-20T12:31:31.845Z,101861.13
2022-09-20T12:34:24.356Z,101862.44
2022-09-20T12:36:52.230Z,101858.81
2022-09-20T12:39:26.309Z,101858.81
2022-09-20T12:42:00.389Z,101850.69
2022-09-20T12:44:36.036Z,101851.09
2022-09-20T12:47:11.910Z,101858.19
2022-09-20T12:50:04.408Z,101852.06
2022-09-20T12:53:03.979Z,101856.81
2022-09-20T12:55:36.622Z,101853.84
2022-09-20T12:58:16.094Z,101854.34
2022-09-20T13:00:59.443Z,101852.16
2022-09-20T13:03:36.863Z,101851.53
2022-09-20T13:06:11.032Z,101838.56
2022-09-20T13:08:48.838Z,101837.88
2022-09-20T13:11:30.558Z,101831.50
2022-09-20T13:14:08.941Z,101829.91
2022-09-20T13:17:13.691Z,101828.19
2022-09-20T13:19:46.711Z,101835.75
2022-09-20T13:22:37.179Z,101835.56
2022-09-20T13:25:07.379Z,101839.00
2022-09-20T13:27:40.894Z,101834.19
2022-09-20T13:30:22.480Z,101842.06
2022-09-20T13:32:51.462Z,101821.03
2022-09-20T13:35:19.785Z,101833.50
2022-09-20T13:37:55.607Z,101830.56
2022-09-20T13:40:24.126Z,101828.91
2022-09-20T13:43:13.018Z,101830.34
2022-09-20T13:45:43.584Z,101828.00
2022-09-20T13:48:11.356Z,101830.75
2022-09-20T13:50:44.889Z,101832.22
2022-09-20T13:53:39.395Z,101832.88
2022-09-20T13:56:10.314Z,101826.22
2022-09-20T13:58:39.744Z,101820.97
2022-09-20T14:01:19.787Z,101820.47
2022-09-20T14:03:47.518Z,101825.75
2022-09-20T14:06:16.162Z,101821.22
2022-09-20T14:08:51.295Z,101815.88
2022-09-20T14:11:31.170Z,101820.59
2022-09-20T14:14:03.098Z,101828.16
2022-09-20T14:16:31.661Z,101824.53
2022-09-20T14:18:59.437Z,101823.84
2022-09-20T14:21:33.612Z,101817.34
2022-09-20T14:24:05.640Z,101823.69
2022-09-20T14:26:36.275Z,101830.81
2022-09-20T14:29:32.007Z,101822.66
2022-09-20T14:32:04.448Z,101828.06
2022-09-20T14:34:31.653Z,101820.66
2022-09-20T14:37:12.023Z,101825.59
2022-09-20T14:39:48.195Z,101825.50
2022-09-20T14:42:33.151Z,101823.69
2022-09-20T14:45:00.091Z,101822.81
2022-09-20T14:47:38.650Z,101815.56
2022-09-20T14:50:44.883Z,101805.84
2022-09-20T14:53:11.495Z,101810.94
2022-09-20T14:55:59.450Z,101812.72
2022-09-20T14:58:26.732Z,101809.75
2022-09-20T15:01:01.396Z,101801.97
2022-09-20T15:03:42.694Z,101804.78
2022-09-20T15:06:13.701Z,101802.47
2022-09-20T15:08:45.447Z,101801.50
2022-09-20T15:11:18.279Z,101804.25
2022-09-20T15:13:45.541Z,101800.13
2022-09-20T15:16:14.849Z,101797.66
2022-09-20T15:18:43.264Z,101794.78
2022-09-20T15:21:11.531Z,101786.47
2022-09-20T15:23:39.473Z,101788.34
2022-09-20T15:26:09.705Z,101789.63
2022-09-20T15:28:36.646Z,101778.69
2022-09-20T15:31:03.414Z,101782.50
2022-09-20T15:33:34.533Z,101775.53
2022-09-20T15:36:02.543Z,101785.75
2022-09-20T15:38:29.236Z,101772.81
2022-09-20T15:40:56.128Z,101774.31
2022-09-20T15:43:26.786Z,101772.09
2022-09-20T15:46:02.010Z,101771.16
2022-09-20T15:48:30.447Z,101764.66
2022-09-20T15:51:08.641Z,101769.16
2022-09-20T15:53:38.426Z,101774.44
2022-09-20T15:56:18.060Z,101765.88
2022-09-20T15:58:50.547Z,101758.16
2022-09-20T16:01:18.873Z,101766.88
2022-09-20T16:03:46.588Z,101763.94
2022-09-20T16:06:13.962Z,101766.00
2022-09-20T16:08:43.435Z,101766.00
2022-09-20T16:11:13.573Z,101764.28
2022-09-20T16:13:40.842Z,101759.34
2022-09-20T16:16:09.818Z,101760.47
2022-09-20T16:18:55.401Z,101763.94
2022-09-20T16:21:22.267Z,101757.66
2022-09-20T16:23:54.715Z,101756.19
2022-09-20T16:26:23.383Z,101752.69
2022-09-20T16:28:50.703Z,101757.06
2022-09-20T16:31:37.371Z,101756.88
2022-09-20T16:34:05.545Z,101757.63
2022-09-20T16:36:33.005Z,101759.16
2022-09-20T16:39:01.254Z,101755.91
2022-09-20T16:41:31.675Z,101750.31
2022-09-20T16:43:58.367Z,101756.53
2022-09-20T16:46:27.531Z,101753.16
2022-09-20T16:48:55.859Z,101748.88
2022-09-20T16:51:26.034Z,101759.84
2022-09-20T16:53:54.935Z,101757.84
2022-09-20T16:56:27.265Z,101758.66
2022-09-20T16:58:54.691Z,101753.34
2022-09-20T17:01:22.650Z,101750.56
2022-09-20T17:03:49.672Z,101745.78
2022-09-20T17:06:16.750Z,101753.38
2022-09-20T17:08:44.966Z,101753.22
2022-09-20T17:11:23.655Z,101757.06
2022-09-20T17:13:52.811Z,101751.31
2022-09-20T17:16:22.912Z,101755.19
2022-09-20T17:19:00.780Z,101756.66
2022-09-20T17:21:29.883Z,101759.03
2022-09-20T17:23:58.889Z,101757.00
2022-09-20T17:26:33.777Z,101750.16
2022-09-20T17:29:02.607Z,101758.88
2022-09-20T17:31:33.864Z,101752.81
2022-09-20T17:34:02.331Z,101756.38
2022-09-20T17:36:31.278Z,101768.34
2022-09-20T17:39:04.170Z,101758.69
2022-09-20T17:41:32.617Z,101765.81
2022-09-20T17:44:02.757Z,101762.56
2022-09-20T17:46:31.856Z,101770.56
2022-09-20T17:49:07.518Z,101766.03
2022-09-20T17:51:45.451Z,101764.66
2022-09-20T17:54:14.104Z,101758.97
2022-09-20T17:56:43.695Z,101766.88
2022-09-20T17:59:11.638Z,101766.78
2022-09-20T18:01:40.398Z,101765.03
2022-09-20T18:04:08.420Z,101764.53
2022-09-20T18:06:37.879Z,101774.09
2022-09-20T18:09:08.444Z,101762.38
2022-09-20T18:11:40.970Z,101768.63
2022-09-20T18:14:10.475Z,101775.28
2022-09-20T18:16:38.488Z,101782.84
2022-09-20T18:19:07.354Z,101780.34
2022-09-20T18:21:36.151Z,101780.28
2022-09-20T18:24:06.796Z,101784.19
2022-09-20T18:26:33.987Z,101777.69
2022-09-20T18:29:01.556Z,101781.72
2022-09-20T18:31:35.945Z,101771.22
2022-09-20T18:34:07.940Z,101781.56
2022-09-20T18:36:38.506Z,101782.66
2022-09-20T18:39:06.138Z,101784.22
2022-09-20T18:41:35.217Z,101787.75
2022-09-20T18:44:04.084Z,101791.31
2022-09-20T18:46:31.602Z,101786.91
2022-09-20T18:49:04.952Z,101787.16
2022-09-20T18:51:35.882Z,101795.88
2022-09-20T18:54:06.048Z,101798.63
2022-09-20T18:56:34.951Z,101795.34
2022-09-20T18:59:07.532Z,101805.78
2022-09-20T19:01:47.728Z,101797.38
2022-09-20T19:04:36.475Z,101800.47
2022-09-20T19:07:18.194Z,101799.13
2022-09-20T19:10:20.677Z,101803.09
2022-09-20T19:13:01.846Z,101809.00
2022-09-20T19:15:49.573Z,101806.09
2022-09-20T19:18:35.778Z,101799.63
2022-09-20T19:21:21.180Z,101812.25
2022-09-20T19:24:09.490Z,101812.97
2022-09-20T19:26:40.087Z,101816.06
2022-09-20T19:29:19.417Z,101814.38
2022-09-20T19:31:51.913Z,101811.03
2022-09-20T19:34:27.079Z,101807.72
2022-09-20T19:37:18.859Z,101816.41
2022-09-20T19:39:51.589Z,101808.28
2022-09-20T19:42:32.125Z,101814.59
2022-09-20T19:45:31.761Z,101810.00
2022-09-20T19:48:28.427Z,101814.34
2022-09-20T19:51:02.580Z,101812.22
2022-09-20T19:53:30.691Z,101817.31
2022-09-20T19:56:01.907Z,101817.59
2022-09-20T19:58:28.851Z,101825.94
2022-09-20T20:00:58.052Z,101817.81
2022-09-20T20:03:27.483Z,101830.06
2022-09-20T20:06:07.915Z,101824.75
2022-09-20T20:08:50.717Z,101826.19
2022-09-20T20:11:17.353Z,101824.91
2022-09-20T20:14:07.104Z,101827.63
2022-09-20T20:16:42.932Z,101830.66
2022-09-20T20:19:46.992Z,101826.06
2022-09-20T20:22:14.268Z,101827.47
2022-09-20T20:24:53.960Z,101828.19
2022-09-20T20:27:21.303Z,101828.47
2022-09-20T20:29:49.344Z,101821.16
2022-09-20T20:32:16.475Z,101831.78
2022-09-20T20:34:43.261Z,101826.91
2022-09-20T20:37:09.995Z,101828.78
2022-09-20T20:39:36.734Z,101829.50
2022-09-20T20:42:06.176Z,101826.97
2022-09-20T20:44:37.141Z,101831.63
2022-09-20T20:47:06.045Z,101834.78
2022-09-20T20:49:33.248Z,101833.53
2022-09-20T20:52:04.372Z,101838.63
2022-09-20T20:54:32.257Z,101839.81
2022-09-20T20:56:59.591Z,101840.16
2022-09-20T20:59:26.593Z,101835.63
2022-09-20T21:01:53.416Z,101836.78
2022-09-20T21:04:21.674Z,101837.88
2022-09-20T21:06:48.630Z,101838.94
2022-09-20T21:09:15.430Z,101838.13
2022-09-20T21:11:46.598Z,101838.94
2022-09-20T21:14:13.338Z,101828.47
2022-09-20T21:16:42.740Z,101834.75
2022-09-20T21:19:13.125Z,101839.88
2022-09-20T21:21:42.756Z,101842.56
2022-09-20T21:24:11.798Z,101838.16
2022-09-20T21:26:39.925Z,101831.31
2022-09-20T21:29:15.742Z,101829.47
2022-09-20T21:31:45.534Z,101829.44
2022-09-20T21:34:13.816Z,101829.56
2022-09-20T21:36:44.746Z,101836.66
2022-09-20T21:39:12.310Z,101831.78
2022-09-20T21:41:39.886Z,101820.41
2022-09-20T21:44:07.706Z,101822.16
2022-09-20T21:46:40.160Z,101816.94
2022-09-20T21:49:09.000Z,101815.66
2022-09-20T21:51:37.141Z,101811.13
2022-09-20T21:54:04.845Z,101802.28
2022-09-20T21:56:36.641Z,101800.66
2022-09-20T21:59:04.722Z,101802.16
2022-09-20T22:01:34.960Z,101799.75
2022-09-20T22:04:10.869Z,101807.75
2022-09-20T22:06:39.939Z,101801.38
2022-09-20T22:09:09.798Z,101808.34
2022-09-20T22:11:45.252Z,101804.28
2022-09-20T22:14:13.943Z,101805.09
2022-09-20T22:16:42.228Z,101809.50
2022-09-20T22:19:12.345Z,101806.84
2022-09-20T22:21:41.962Z,101807.66
2022-09-20T22:24:10.639Z,101810.06
2022-09-20T22:26:42.632Z,101813.22
2022-09-20T22:29:10.006Z,101812.28
2022-09-20T22:31:41.442Z,101812.97
2022-09-20T22:34:08.133Z,101818.22
2022-09-20T22:36:37.628Z,101810.78
2022-09-20T22:39:07.488Z,101807.16
2022-09-20T22:41:37.341Z,101811.38
2022-09-20T22:44:05.455Z,101814.03
2022-09-20T22:46:32.899Z,101812.06
2022-09-20T22:48:59.640Z,101810.44
2022-09-20T22:51:29.361Z,101805.53
2022-09-20T22:53:56.042Z,101804.75
2022-09-20T22:56:24.712Z,101800.69
2022-09-20T22:58:54.510Z,101807.75
2022-09-20T23:01:23.732Z,101804.50
2022-09-20T23:04:08.992Z,101813.69
2022-09-20T23:06:41.858Z,101815.78
2022-09-20T23:09:12.813Z,101814.13
2022-09-20T23:11:42.051Z,101810.88
2022-09-20T23:14:11.754Z,101814.03
2022-09-20T23:16:39.061Z,101804.84
2022-09-20T23:19:07.723Z,101811.13
2022-09-20T23:21:36.259Z,101805.09
2022-09-20T23:24:05.863Z,101805.09
2022-09-20T23:26:34.535Z,101809.03
2022-09-20T23:29:12.547Z,101805.78
2022-09-20T23:31:41.231Z,101805.78
2022-09-20T23:34:08.659Z,101802.53
2022-09-20T23:36:38.275Z,101803.81
2022-09-20T23:39:06.168Z,101809.97
2022-09-20T23:41:33.306Z,101807.63
2022-09-20T23:44:00.226Z,101800.44
2022-09-20T23:46:27.886Z,101797.78
2022-09-20T23:48:54.725Z,101793.47
2022-09-20T23:51:24.406Z,101790.31
2022-09-20T23:53:52.801Z,101801.16
2022-09-20T23:56:21.327Z,101788.81
2022-09-20T23:58:48.727Z,101794.50
